sensor_id;sensor_type;location;lat;lon;timestamp;temperature;humidity
4249;DHT22;8404;48.752;12.922;2022-09-17T00:01:27;10.70;99.20
4249;DHT22;8404;48.752;12.922;2022-09-17T00:03:58;10.80;98.90
4249;DHT22;8404;48.752;12.922;2022-09-17T00:06:32;10.80;98.80
4249;DHT22;8404;48.752;12.922;2022-09-17T00:09:02;10.70;99.00
4249;DHT22;8404;48.752;12.922;2022-09-17T00:11:31;10.70;99.10
4249;DHT22;8404;48.752;12.922;2022-09-17T00:14:02;10.70;99.20
4249;DHT22;8404;48.752;12.922;2022-09-17T00:16:32;10.70;99.20
4249;DHT22;8404;48.752;12.922;2022-09-17T00:19:02;10.80;99.00
4249;DHT22;8404;48.752;12.922;2022-09-17T00:21:31;10.80;98.80
4249;DHT22;8404;48.752;12.922;2022-09-17T00:24:03;10.80;98.90
4249;DHT22;8404;48.752;12.922;2022-09-17T00:26:33;10.80;99.00
4249;DHT22;8404;48.752;12.922;2022-09-17T00:29:03;10.80;98.90
4249;DHT22;8404;48.752;12.922;2022-09-17T00:31:31;10.80;98.60
4249;DHT22;8404;48.752;12.922;2022-09-17T00:34:01;10.90;98.60
4249;DHT22;8404;48.752;12.922;2022-09-17T00:36:30;10.90;98.30
4249;DHT22;8404;48.752;12.922;2022-09-17T00:38:59;10.90;98.20
4249;DHT22;8404;48.752;12.922;2022-09-17T00:41:30;10.90;98.00
4249;DHT22;8404;48.752;12.922;2022-09-17T00:44:00;11.00;97.70
4249;DHT22;8404;48.752;12.922;2022-09-17T00:46:32;11.10;97.40
4249;DHT22;8404;48.752;12.922;2022-09-17T00:49:05;11.10;97.20
4249;DHT22;8404;48.752;12.922;2022-09-17T00:51:36;11.10;96.70
4249;DHT22;8404;48.752;12.922;2022-09-17T00:54:06;11.00;96.60
4249;DHT22;8404;48.752;12.922;2022-09-17T00:56:39;11.00;96.70
4249;DHT22;8404;48.752;12.922;2022-09-17T00:59:09;11.00;96.70
4249;DHT22;8404;48.752;12.922;2022-09-17T01:01:37;11.00;96.50
4249;DHT22;8404;48.752;12.922;2022-09-17T01:04:05;10.90;96.40
4249;DHT22;8404;48.752;12.922;2022-09-17T01:06:36;10.90;96.40
4249;DHT22;8404;48.752;12.922;2022-09-17T01:09:20;10.90;96.20
4249;DHT22;8404;48.752;12.922;2022-09-17T01:12:12;10.90;96.40
4249;DHT22;8404;48.752;12.922;2022-09-17T01:14:58;10.80;96.20
4249;DHT22;8404;48.752;12.922;2022-09-17T01:17:32;10.80;95.80
4249;DHT22;8404;48.752;12.922;2022-09-17T01:23:18;10.80;95.70
4249;DHT22;8404;48.752;12.922;2022-09-17T01:25:59;10.70;95.90
4249;DHT22;8404;48.752;12.922;2022-09-17T01:28:40;10.70;95.50
4249;DHT22;8404;48.752;12.922;2022-09-17T01:34:14;10.60;95.40
4249;DHT22;8404;48.752;12.922;2022-09-17T01:36:55;10.50;95.60
4249;DHT22;8404;48.752;12.922;2022-09-17T01:39:31;10.50;95.80
4249;DHT22;8404;48.752;12.922;2022-09-17T01:42:08;10.40;95.90
4249;DHT22;8404;48.752;12.922;2022-09-17T01:44:44;10.40;96.20
4249;DHT22;8404;48.752;12.922;2022-09-17T01:47:18;10.30;96.20
4249;DHT22;8404;48.752;12.922;2022-09-17T01:49:49;10.30;96.30
4249;DHT22;8404;48.752;12.922;2022-09-17T01:52:18;10.20;96.40
4249;DHT22;8404;48.752;12.922;2022-09-17T01:54:51;10.30;96.40
4249;DHT22;8404;48.752;12.922;2022-09-17T01:57:25;10.30;96.50
4249;DHT22;8404;48.752;12.922;2022-09-17T01:59:57;10.20;96.60
4249;DHT22;8404;48.752;12.922;2022-09-17T02:02:40;10.10;96.40
4249;DHT22;8404;48.752;12.922;2022-09-17T02:05:15;10.10;96.70
4249;DHT22;8404;48.752;12.922;2022-09-17T02:07:50;10.00;96.20
4249;DHT22;8404;48.752;12.922;2022-09-17T02:10:22;10.10;95.70
4249;DHT22;8404;48.752;12.922;2022-09-17T02:12:55;10.00;95.60
4249;DHT22;8404;48.752;12.922;2022-09-17T02:15:26;10.00;95.50
4249;DHT22;8404;48.752;12.922;2022-09-17T02:18:02;10.00;96.00
4249;DHT22;8404;48.752;12.922;2022-09-17T02:20:37;9.90;96.00
4249;DHT22;8404;48.752;12.922;2022-09-17T02:23:11;9.90;95.90
4249;DHT22;8404;48.752;12.922;2022-09-17T02:25:46;9.80;96.10
4249;DHT22;8404;48.752;12.922;2022-09-17T02:28:19;9.90;95.60
4249;DHT22;8404;48.752;12.922;2022-09-17T02:30:49;9.90;95.90
4249;DHT22;8404;48.752;12.922;2022-09-17T02:33:19;9.80;95.80
4249;DHT22;8404;48.752;12.922;2022-09-17T02:35:48;9.80;96.10
4249;DHT22;8404;48.752;12.922;2022-09-17T02:38:21;9.80;96.30
4249;DHT22;8404;48.752;12.922;2022-09-17T02:40:54;9.80;96.40
4249;DHT22;8404;48.752;12.922;2022-09-17T02:43:31;9.90;96.10
4249;DHT22;8404;48.752;12.922;2022-09-17T02:46:12;9.80;96.40
4249;DHT22;8404;48.752;12.922;2022-09-17T02:48:58;9.90;96.10
4249;DHT22;8404;48.752;12.922;2022-09-17T02:51:35;9.90;96.10
4249;DHT22;8404;48.752;12.922;2022-09-17T02:54:17;9.80;96.20
4249;DHT22;8404;48.752;12.922;2022-09-17T02:56:50;9.80;96.40
4249;DHT22;8404;48.752;12.922;2022-09-17T02:59:24;9.80;96.60
4249;DHT22;8404;48.752;12.922;2022-09-17T03:02:00;9.80;96.30
4249;DHT22;8404;48.752;12.922;2022-09-17T03:04:33;9.80;96.40
4249;DHT22;8404;48.752;12.922;2022-09-17T03:07:05;9.70;96.50
4249;DHT22;8404;48.752;12.922;2022-09-17T03:09:34;9.80;96.20
4249;DHT22;8404;48.752;12.922;2022-09-17T03:12:03;9.70;96.70
4249;DHT22;8404;48.752;12.922;2022-09-17T03:14:31;9.70;96.60
4249;DHT22;8404;48.752;12.922;2022-09-17T03:16:59;9.70;96.60
4249;DHT22;8404;48.752;12.922;2022-09-17T03:19:27;9.80;96.60
4249;DHT22;8404;48.752;12.922;2022-09-17T03:21:57;9.80;96.10
4249;DHT22;8404;48.752;12.922;2022-09-17T03:24:25;9.90;95.80
4249;DHT22;8404;48.752;12.922;2022-09-17T03:26:53;9.90;95.90
4249;DHT22;8404;48.752;12.922;2022-09-17T03:29:21;9.80;96.10
4249;DHT22;8404;48.752;12.922;2022-09-17T03:31:49;9.80;96.10
4249;DHT22;8404;48.752;12.922;2022-09-17T03:34:17;9.80;96.00
4249;DHT22;8404;48.752;12.922;2022-09-17T03:36:46;9.70;96.20
4249;DHT22;8404;48.752;12.922;2022-09-17T03:39:15;9.70;96.40
4249;DHT22;8404;48.752;12.922;2022-09-17T03:41:43;9.70;96.50
4249;DHT22;8404;48.752;12.922;2022-09-17T03:44:11;9.60;96.70
4249;DHT22;8404;48.752;12.922;2022-09-17T03:46:41;9.60;96.80
4249;DHT22;8404;48.752;12.922;2022-09-17T03:49:09;9.70;96.50
4249;DHT22;8404;48.752;12.922;2022-09-17T03:51:37;9.70;96.50
4249;DHT22;8404;48.752;12.922;2022-09-17T03:54:05;9.70;96.30
4249;DHT22;8404;48.752;12.922;2022-09-17T03:56:35;9.70;96.40
4249;DHT22;8404;48.752;12.922;2022-09-17T03:59:03;9.70;96.30
4249;DHT22;8404;48.752;12.922;2022-09-17T04:01:31;9.70;96.20
4249;DHT22;8404;48.752;12.922;2022-09-17T04:03:59;9.80;96.00
4249;DHT22;8404;48.752;12.922;2022-09-17T04:06:27;9.80;95.90
4249;DHT22;8404;48.752;12.922;2022-09-17T04:08:55;9.70;95.90
4249;DHT22;8404;48.752;12.922;2022-09-17T04:11:23;9.70;95.90
4249;DHT22;8404;48.752;12.922;2022-09-17T04:13:53;9.70;95.90
4249;DHT22;8404;48.752;12.922;2022-09-17T04:16:21;9.60;96.00
4249;DHT22;8404;48.752;12.922;2022-09-17T04:18:49;9.60;96.10
4249;DHT22;8404;48.752;12.922;2022-09-17T04:21:17;9.60;96.00
4249;DHT22;8404;48.752;12.922;2022-09-17T04:23:45;9.60;96.20
4249;DHT22;8404;48.752;12.922;2022-09-17T04:26:13;9.60;95.90
4249;DHT22;8404;48.752;12.922;2022-09-17T04:28:41;9.60;96.00
4249;DHT22;8404;48.752;12.922;2022-09-17T04:31:10;9.60;96.00
4249;DHT22;8404;48.752;12.922;2022-09-17T04:33:38;9.60;95.60
4249;DHT22;8404;48.752;12.922;2022-09-17T04:36:06;9.60;95.80
4249;DHT22;8404;48.752;12.922;2022-09-17T04:38:34;9.50;95.90
4249;DHT22;8404;48.752;12.922;2022-09-17T04:41:05;9.50;96.10
4249;DHT22;8404;48.752;12.922;2022-09-17T04:43:34;9.60;95.30
4249;DHT22;8404;48.752;12.922;2022-09-17T04:46:02;9.60;95.70
4249;DHT22;8404;48.752;12.922;2022-09-17T04:48:31;9.60;95.80
4249;DHT22;8404;48.752;12.922;2022-09-17T04:50:59;9.60;95.70
4249;DHT22;8404;48.752;12.922;2022-09-17T04:53:27;9.60;95.60
4249;DHT22;8404;48.752;12.922;2022-09-17T04:55:55;9.60;96.10
4249;DHT22;8404;48.752;12.922;2022-09-17T04:58:23;9.50;95.90
4249;DHT22;8404;48.752;12.922;2022-09-17T05:00:51;9.50;96.20
4249;DHT22;8404;48.752;12.922;2022-09-17T05:03:19;9.50;95.90
4249;DHT22;8404;48.752;12.922;2022-09-17T05:05:49;9.50;95.70
4249;DHT22;8404;48.752;12.922;2022-09-17T05:08:17;9.50;95.70
4249;DHT22;8404;48.752;12.922;2022-09-17T05:10:45;9.50;95.80
4249;DHT22;8404;48.752;12.922;2022-09-17T05:13:13;9.60;95.80
4249;DHT22;8404;48.752;12.922;2022-09-17T05:15:41;9.50;95.80
4249;DHT22;8404;48.752;12.922;2022-09-17T05:18:09;9.60;95.50
4249;DHT22;8404;48.752;12.922;2022-09-17T05:20:37;9.70;95.40
4249;DHT22;8404;48.752;12.922;2022-09-17T05:23:06;9.60;95.40
4249;DHT22;8404;48.752;12.922;2022-09-17T05:25:34;9.60;95.50
4249;DHT22;8404;48.752;12.922;2022-09-17T05:28:03;9.70;95.20
4249;DHT22;8404;48.752;12.922;2022-09-17T05:30:30;9.70;95.10
4249;DHT22;8404;48.752;12.922;2022-09-17T05:32:59;9.70;95.10
4249;DHT22;8404;48.752;12.922;2022-09-17T05:35:29;9.60;95.00
4249;DHT22;8404;48.752;12.922;2022-09-17T05:37:58;9.70;94.60
4249;DHT22;8404;48.752;12.922;2022-09-17T05:40:28;9.60;94.90
4249;DHT22;8404;48.752;12.922;2022-09-17T05:42:57;9.60;94.70
4249;DHT22;8404;48.752;12.922;2022-09-17T05:45:26;9.60;94.70
4249;DHT22;8404;48.752;12.922;2022-09-17T05:47:55;9.60;94.60
4249;DHT22;8404;48.752;12.922;2022-09-17T05:50:23;9.60;94.50
4249;DHT22;8404;48.752;12.922;2022-09-17T05:52:52;9.70;93.90
4249;DHT22;8404;48.752;12.922;2022-09-17T05:55:22;9.80;93.70
4249;DHT22;8404;48.752;12.922;2022-09-17T05:57:51;9.80;93.50
4249;DHT22;8404;48.752;12.922;2022-09-17T06:00:19;9.90;93.00
4249;DHT22;8404;48.752;12.922;2022-09-17T06:02:53;9.90;93.20
4249;DHT22;8404;48.752;12.922;2022-09-17T06:05:21;9.80;93.40
4249;DHT22;8404;48.752;12.922;2022-09-17T06:07:50;9.80;93.60
4249;DHT22;8404;48.752;12.922;2022-09-17T06:10:18;9.80;93.60
4249;DHT22;8404;48.752;12.922;2022-09-17T06:12:46;9.80;93.90
4249;DHT22;8404;48.752;12.922;2022-09-17T06:15:15;9.90;93.20
4249;DHT22;8404;48.752;12.922;2022-09-17T06:17:43;9.90;93.00
4249;DHT22;8404;48.752;12.922;2022-09-17T06:20:11;10.00;92.70
4249;DHT22;8404;48.752;12.922;2022-09-17T06:22:39;9.90;93.30
4249;DHT22;8404;48.752;12.922;2022-09-17T06:25:08;9.90;93.70
4249;DHT22;8404;48.752;12.922;2022-09-17T06:27:36;10.00;93.40
4249;DHT22;8404;48.752;12.922;2022-09-17T06:30:05;10.00;93.30
4249;DHT22;8404;48.752;12.922;2022-09-17T06:32:34;10.10;93.00
4249;DHT22;8404;48.752;12.922;2022-09-17T06:35:03;10.10;93.00
4249;DHT22;8404;48.752;12.922;2022-09-17T06:37:31;10.10;92.90
4249;DHT22;8404;48.752;12.922;2022-09-17T06:40:00;10.10;92.90
4249;DHT22;8404;48.752;12.922;2022-09-17T06:42:28;10.20;91.80
4249;DHT22;8404;48.752;12.922;2022-09-17T06:44:56;10.20;91.90
4249;DHT22;8404;48.752;12.922;2022-09-17T06:47:27;10.20;91.90
4249;DHT22;8404;48.752;12.922;2022-09-17T06:49:57;10.30;91.30
4249;DHT22;8404;48.752;12.922;2022-09-17T06:52:25;10.20;91.60
4249;DHT22;8404;48.752;12.922;2022-09-17T06:54:53;10.30;91.50
4249;DHT22;8404;48.752;12.922;2022-09-17T06:57:22;10.20;91.90
4249;DHT22;8404;48.752;12.922;2022-09-17T06:59:50;10.20;92.00
4249;DHT22;8404;48.752;12.922;2022-09-17T07:02:18;10.30;92.00
4249;DHT22;8404;48.752;12.922;2022-09-17T07:04:46;10.40;91.70
4249;DHT22;8404;48.752;12.922;2022-09-17T07:07:15;10.30;92.00
4249;DHT22;8404;48.752;12.922;2022-09-17T07:09:43;10.40;92.30
4249;DHT22;8404;48.752;12.922;2022-09-17T07:12:11;10.40;92.00
4249;DHT22;8404;48.752;12.922;2022-09-17T07:14:40;10.40;91.50
4249;DHT22;8404;48.752;12.922;2022-09-17T07:17:08;10.40;91.00
4249;DHT22;8404;48.752;12.922;2022-09-17T07:19:36;10.50;90.40
4249;DHT22;8404;48.752;12.922;2022-09-17T07:22:04;10.40;90.20
4249;DHT22;8404;48.752;12.922;2022-09-17T07:24:34;10.40;89.80
4249;DHT22;8404;48.752;12.922;2022-09-17T07:27:02;10.50;90.00
4249;DHT22;8404;48.752;12.922;2022-09-17T07:29:30;10.30;90.40
4249;DHT22;8404;48.752;12.922;2022-09-17T07:31:58;10.40;90.20
4249;DHT22;8404;48.752;12.922;2022-09-17T07:34:26;10.40;89.90
4249;DHT22;8404;48.752;12.922;2022-09-17T07:36:54;10.40;90.40
4249;DHT22;8404;48.752;12.922;2022-09-17T07:39:22;10.40;89.40
4249;DHT22;8404;48.752;12.922;2022-09-17T07:41:52;10.50;89.60
4249;DHT22;8404;48.752;12.922;2022-09-17T07:44:20;10.50;90.10
4249;DHT22;8404;48.752;12.922;2022-09-17T07:46:48;10.50;88.60
4249;DHT22;8404;48.752;12.922;2022-09-17T07:49:16;10.60;89.60
4249;DHT22;8404;48.752;12.922;2022-09-17T07:51:45;10.70;88.10
4249;DHT22;8404;48.752;12.922;2022-09-17T07:54:13;10.60;88.30
4249;DHT22;8404;48.752;12.922;2022-09-17T07:56:41;10.60;89.20
4249;DHT22;8404;48.752;12.922;2022-09-17T07:59:12;10.70;89.00
4249;DHT22;8404;48.752;12.922;2022-09-17T08:01:40;10.60;90.10
4249;DHT22;8404;48.752;12.922;2022-09-17T08:04:08;10.70;90.00
4249;DHT22;8404;48.752;12.922;2022-09-17T08:06:37;10.80;90.00
4249;DHT22;8404;48.752;12.922;2022-09-17T08:09:06;10.90;88.40
4249;DHT22;8404;48.752;12.922;2022-09-17T08:11:36;11.00;85.90
4249;DHT22;8404;48.752;12.922;2022-09-17T08:14:22;11.10;86.70
4249;DHT22;8404;48.752;12.922;2022-09-17T08:16:56;11.20;86.90
4249;DHT22;8404;48.752;12.922;2022-09-17T08:19:24;11.20;84.60
4249;DHT22;8404;48.752;12.922;2022-09-17T08:21:54;11.10;84.40
4249;DHT22;8404;48.752;12.922;2022-09-17T08:24:23;11.00;85.00
4249;DHT22;8404;48.752;12.922;2022-09-17T08:26:51;11.00;86.90
4249;DHT22;8404;48.752;12.922;2022-09-17T08:29:19;11.00;87.50
4249;DHT22;8404;48.752;12.922;2022-09-17T08:31:48;11.00;85.10
4249;DHT22;8404;48.752;12.922;2022-09-17T08:34:16;11.00;85.30
4249;DHT22;8404;48.752;12.922;2022-09-17T08:36:44;10.90;85.40
4249;DHT22;8404;48.752;12.922;2022-09-17T08:39:12;10.90;86.00
4249;DHT22;8404;48.752;12.922;2022-09-17T08:41:48;10.80;87.20
4249;DHT22;8404;48.752;12.922;2022-09-17T08:44:23;10.80;86.10
4249;DHT22;8404;48.752;12.922;2022-09-17T08:46:58;10.80;86.30
4249;DHT22;8404;48.752;12.922;2022-09-17T08:49:33;10.80;86.70
4249;DHT22;8404;48.752;12.922;2022-09-17T08:55:11;10.80;87.00
4249;DHT22;8404;48.752;12.922;2022-09-17T08:57:47;10.90;87.20
4249;DHT22;8404;48.752;12.922;2022-09-17T09:00:17;11.00;87.30
4249;DHT22;8404;48.752;12.922;2022-09-17T09:02:59;11.00;85.20
4249;DHT22;8404;48.752;12.922;2022-09-17T09:05:35;11.00;85.60
4249;DHT22;8404;48.752;12.922;2022-09-17T09:08:13;10.90;86.90
4249;DHT22;8404;48.752;12.922;2022-09-17T09:10:48;11.00;87.50
4249;DHT22;8404;48.752;12.922;2022-09-17T09:13:19;11.00;86.30
4249;DHT22;8404;48.752;12.922;2022-09-17T09:15:53;11.00;87.90
4249;DHT22;8404;48.752;12.922;2022-09-17T09:18:26;10.90;87.60
4249;DHT22;8404;48.752;12.922;2022-09-17T09:21:04;11.00;87.10
4249;DHT22;8404;48.752;12.922;2022-09-17T09:23:43;11.10;87.40
4249;DHT22;8404;48.752;12.922;2022-09-17T09:26:16;11.20;86.50
4249;DHT22;8404;48.752;12.922;2022-09-17T09:29:09;11.20;84.70
4249;DHT22;8404;48.752;12.922;2022-09-17T09:32:01;11.20;84.10
4249;DHT22;8404;48.752;12.922;2022-09-17T09:34:44;11.20;85.10
4249;DHT22;8404;48.752;12.922;2022-09-17T09:37:16;11.10;84.70
4249;DHT22;8404;48.752;12.922;2022-09-17T09:39:46;11.00;86.20
4249;DHT22;8404;48.752;12.922;2022-09-17T09:42:18;10.70;86.80
4249;DHT22;8404;48.752;12.922;2022-09-17T09:44:50;10.30;90.10
4249;DHT22;8404;48.752;12.922;2022-09-17T09:47:32;10.10;91.60
4249;DHT22;8404;48.752;12.922;2022-09-17T09:50:18;10.10;92.50
4249;DHT22;8404;48.752;12.922;2022-09-17T09:52:55;10.30;93.30
4249;DHT22;8404;48.752;12.922;2022-09-17T09:55:36;10.30;92.60
4249;DHT22;8404;48.752;12.922;2022-09-17T09:58:15;10.30;93.10
4249;DHT22;8404;48.752;12.922;2022-09-17T10:00:44;10.30;93.20
4249;DHT22;8404;48.752;12.922;2022-09-17T10:03:15;10.30;93.60
4249;DHT22;8404;48.752;12.922;2022-09-17T10:05:54;10.30;93.50
4249;DHT22;8404;48.752;12.922;2022-09-17T10:08:24;10.30;93.70
4249;DHT22;8404;48.752;12.922;2022-09-17T10:10:54;10.30;93.40
4249;DHT22;8404;48.752;12.922;2022-09-17T10:13:23;10.40;93.40
4249;DHT22;8404;48.752;12.922;2022-09-17T10:15:52;10.50;93.70
4249;DHT22;8404;48.752;12.922;2022-09-17T10:18:21;10.60;92.80
4249;DHT22;8404;48.752;12.922;2022-09-17T10:21:00;10.60;93.30
4249;DHT22;8404;48.752;12.922;2022-09-17T10:23:31;10.60;92.80
4249;DHT22;8404;48.752;12.922;2022-09-17T10:26:03;10.60;93.50
4249;DHT22;8404;48.752;12.922;2022-09-17T10:28:34;10.60;92.90
4249;DHT22;8404;48.752;12.922;2022-09-17T10:31:05;10.60;92.40
4249;DHT22;8404;48.752;12.922;2022-09-17T10:33:49;10.60;93.80
4249;DHT22;8404;48.752;12.922;2022-09-17T10:36:37;10.50;93.20
4249;DHT22;8404;48.752;12.922;2022-09-17T10:39:33;10.40;93.00
4249;DHT22;8404;48.752;12.922;2022-09-17T10:42:03;10.40;93.60
4249;DHT22;8404;48.752;12.922;2022-09-17T10:44:34;10.30;92.80
4249;DHT22;8404;48.752;12.922;2022-09-17T10:47:05;10.20;93.90
4249;DHT22;8404;48.752;12.922;2022-09-17T10:49:39;10.10;94.80
4249;DHT22;8404;48.752;12.922;2022-09-17T10:52:16;10.10;95.20
4249;DHT22;8404;48.752;12.922;2022-09-17T10:55:21;10.00;95.30
4249;DHT22;8404;48.752;12.922;2022-09-17T10:58:02;9.80;96.00
4249;DHT22;8404;48.752;12.922;2022-09-17T11:00:41;9.50;97.00
4249;DHT22;8404;48.752;12.922;2022-09-17T11:03:46;9.40;98.10
4249;DHT22;8404;48.752;12.922;2022-09-17T11:06:29;9.30;98.10
4249;DHT22;8404;48.752;12.922;2022-09-17T11:09:14;9.20;98.60
4249;DHT22;8404;48.752;12.922;2022-09-17T11:11:54;9.20;98.40
4249;DHT22;8404;48.752;12.922;2022-09-17T11:14:44;9.10;98.80
4249;DHT22;8404;48.752;12.922;2022-09-17T11:17:40;9.00;99.30
4249;DHT22;8404;48.752;12.922;2022-09-17T11:20:19;9.00;99.00
4249;DHT22;8404;48.752;12.922;2022-09-17T11:22:57;9.00;99.50
4249;DHT22;8404;48.752;12.922;2022-09-17T11:25:39;9.00;99.60
4249;DHT22;8404;48.752;12.922;2022-09-17T11:28:21;9.00;99.50
4249;DHT22;8404;48.752;12.922;2022-09-17T11:31:01;9.00;99.90
4249;DHT22;8404;48.752;12.922;2022-09-17T11:33:48;9.10;99.90
4249;DHT22;8404;48.752;12.922;2022-09-17T11:36:22;9.10;99.90
4249;DHT22;8404;48.752;12.922;2022-09-17T11:38:54;9.20;99.90
4249;DHT22;8404;48.752;12.922;2022-09-17T11:41:28;9.30;99.90
4249;DHT22;8404;48.752;12.922;2022-09-17T11:44:03;9.30;99.90
4249;DHT22;8404;48.752;12.922;2022-09-17T11:46:39;9.40;99.90
4249;DHT22;8404;48.752;12.922;2022-09-17T11:49:14;9.60;99.80
4249;DHT22;8404;48.752;12.922;2022-09-17T11:51:51;9.60;99.70
4249;DHT22;8404;48.752;12.922;2022-09-17T11:54:24;9.70;99.50
4249;DHT22;8404;48.752;12.922;2022-09-17T11:57:05;9.90;99.20
4249;DHT22;8404;48.752;12.922;2022-09-17T11:59:40;10.00;98.70
4249;DHT22;8404;48.752;12.922;2022-09-17T12:02:16;10.10;98.50
4249;DHT22;8404;48.752;12.922;2022-09-17T12:04:51;10.30;99.20
4249;DHT22;8404;48.752;12.922;2022-09-17T12:07:29;10.60;98.70
4249;DHT22;8404;48.752;12.922;2022-09-17T12:10:06;10.80;98.60
4249;DHT22;8404;48.752;12.922;2022-09-17T12:12:43;11.10;98.10
4249;DHT22;8404;48.752;12.922;2022-09-17T12:15:20;11.40;97.70
4249;DHT22;8404;48.752;12.922;2022-09-17T12:17:53;11.50;94.90
4249;DHT22;8404;48.752;12.922;2022-09-17T12:20:46;11.40;94.70
4249;DHT22;8404;48.752;12.922;2022-09-17T12:23:22;11.40;95.60
4249;DHT22;8404;48.752;12.922;2022-09-17T12:25:57;11.60;94.00
4249;DHT22;8404;48.752;12.922;2022-09-17T12:28:33;11.70;92.90
4249;DHT22;8404;48.752;12.922;2022-09-17T12:31:09;11.60;93.60
4249;DHT22;8404;48.752;12.922;2022-09-17T12:33:42;11.60;94.10
4249;DHT22;8404;48.752;12.922;2022-09-17T12:36:25;11.70;93.20
4249;DHT22;8404;48.752;12.922;2022-09-17T12:39:17;11.70;94.00
4249;DHT22;8404;48.752;12.922;2022-09-17T12:41:58;11.80;91.70
4249;DHT22;8404;48.752;12.922;2022-09-17T12:44:44;12.00;92.40
4249;DHT22;8404;48.752;12.922;2022-09-17T12:47:31;12.00;91.20
4249;DHT22;8404;48.752;12.922;2022-09-17T12:50:13;11.90;90.70
4249;DHT22;8404;48.752;12.922;2022-09-17T12:52:54;11.90;90.80
4249;DHT22;8404;48.752;12.922;2022-09-17T12:55:42;11.80;90.10
4249;DHT22;8404;48.752;12.922;2022-09-17T12:58:24;11.90;88.90
4249;DHT22;8404;48.752;12.922;2022-09-17T13:01:01;11.90;89.40
4249;DHT22;8404;48.752;12.922;2022-09-17T13:03:34;11.90;89.10
4249;DHT22;8404;48.752;12.922;2022-09-17T13:06:22;12.00;87.20
4249;DHT22;8404;48.752;12.922;2022-09-17T13:09:11;12.10;86.40
4249;DHT22;8404;48.752;12.922;2022-09-17T13:12:09;12.10;85.80
4249;DHT22;8404;48.752;12.922;2022-09-17T13:14:59;12.10;87.10
4249;DHT22;8404;48.752;12.922;2022-09-17T13:17:35;12.20;86.10
4249;DHT22;8404;48.752;12.922;2022-09-17T13:20:13;12.20;84.70
4249;DHT22;8404;48.752;12.922;2022-09-17T13:22:45;12.10;83.90
4249;DHT22;8404;48.752;12.922;2022-09-17T13:25:15;12.10;84.70
4249;DHT22;8404;48.752;12.922;2022-09-17T13:27:44;12.20;84.00
4249;DHT22;8404;48.752;12.922;2022-09-17T13:30:14;12.30;83.60
4249;DHT22;8404;48.752;12.922;2022-09-17T13:32:53;12.50;82.60
4249;DHT22;8404;48.752;12.922;2022-09-17T13:35:46;12.60;81.20
4249;DHT22;8404;48.752;12.922;2022-09-17T13:38:17;12.70;80.80
4249;DHT22;8404;48.752;12.922;2022-09-17T13:40:50;12.60;81.20
4249;DHT22;8404;48.752;12.922;2022-09-17T13:43:21;12.70;80.80
4249;DHT22;8404;48.752;12.922;2022-09-17T13:46:07;12.70;82.20
4249;DHT22;8404;48.752;12.922;2022-09-17T13:48:45;12.80;79.20
4249;DHT22;8404;48.752;12.922;2022-09-17T13:51:52;12.70;78.70
4249;DHT22;8404;48.752;12.922;2022-09-17T13:54:22;12.70;80.00
4249;DHT22;8404;48.752;12.922;2022-09-17T13:57:13;12.70;78.60
4249;DHT22;8404;48.752;12.922;2022-09-17T13:59:53;12.60;78.80
4249;DHT22;8404;48.752;12.922;2022-09-17T14:02:32;12.70;78.30
4249;DHT22;8404;48.752;12.922;2022-09-17T14:08:24;12.80;77.50
4249;DHT22;8404;48.752;12.922;2022-09-17T14:10:58;12.90;78.90
4249;DHT22;8404;48.752;12.922;2022-09-17T14:13:40;13.20;78.10
4249;DHT22;8404;48.752;12.922;2022-09-17T14:16:33;13.30;76.00
4249;DHT22;8404;48.752;12.922;2022-09-17T14:19:19;13.00;76.30
4249;DHT22;8404;48.752;12.922;2022-09-17T14:22:11;12.80;77.30
4249;DHT22;8404;48.752;12.922;2022-09-17T14:24:46;12.70;80.00
4249;DHT22;8404;48.752;12.922;2022-09-17T14:27:30;11.80;92.00
4249;DHT22;8404;48.752;12.922;2022-09-17T14:30:17;11.10;94.60
4249;DHT22;8404;48.752;12.922;2022-09-17T14:32:51;11.00;96.50
4249;DHT22;8404;48.752;12.922;2022-09-17T14:35:23;11.30;94.60
4249;DHT22;8404;48.752;12.922;2022-09-17T14:37:55;11.50;94.80
4249;DHT22;8404;48.752;12.922;2022-09-17T14:40:26;11.70;95.00
4249;DHT22;8404;48.752;12.922;2022-09-17T14:42:56;11.70;94.30
4249;DHT22;8404;48.752;12.922;2022-09-17T14:45:27;11.90;93.80
4249;DHT22;8404;48.752;12.922;2022-09-17T14:48:17;12.00;93.50
4249;DHT22;8404;48.752;12.922;2022-09-17T14:50:46;12.40;92.10
4249;DHT22;8404;48.752;12.922;2022-09-17T14:53:16;12.70;90.50
4249;DHT22;8404;48.752;12.922;2022-09-17T14:55:46;12.70;91.10
4249;DHT22;8404;48.752;12.922;2022-09-17T14:58:29;12.60;92.20
4249;DHT22;8404;48.752;12.922;2022-09-17T15:00:58;12.60;90.10
4249;DHT22;8404;48.752;12.922;2022-09-17T15:03:27;12.80;90.60
4249;DHT22;8404;48.752;12.922;2022-09-17T15:05:55;13.10;85.70
4249;DHT22;8404;48.752;12.922;2022-09-17T15:08:25;13.30;79.90
4249;DHT22;8404;48.752;12.922;2022-09-17T15:10:59;13.20;78.50
4249;DHT22;8404;48.752;12.922;2022-09-17T15:13:30;13.40;77.80
4249;DHT22;8404;48.752;12.922;2022-09-17T15:16:00;13.60;77.30
4249;DHT22;8404;48.752;12.922;2022-09-17T15:18:34;13.70;76.40
4249;DHT22;8404;48.752;12.922;2022-09-17T15:21:09;13.80;73.30
4249;DHT22;8404;48.752;12.922;2022-09-17T15:23:38;13.60;72.40
4249;DHT22;8404;48.752;12.922;2022-09-17T15:26:08;13.30;71.40
4249;DHT22;8404;48.752;12.922;2022-09-17T15:28:39;13.10;72.70
4249;DHT22;8404;48.752;12.922;2022-09-17T15:31:14;12.90;73.20
4249;DHT22;8404;48.752;12.922;2022-09-17T15:33:43;12.70;73.60
4249;DHT22;8404;48.752;12.922;2022-09-17T15:36:18;12.60;74.40
4249;DHT22;8404;48.752;12.922;2022-09-17T15:38:47;12.50;74.90
4249;DHT22;8404;48.752;12.922;2022-09-17T15:41:32;12.40;75.80
4249;DHT22;8404;48.752;12.922;2022-09-17T15:44:13;12.30;77.60
4249;DHT22;8404;48.752;12.922;2022-09-17T15:50:13;12.30;78.80
4249;DHT22;8404;48.752;12.922;2022-09-17T15:52:42;12.40;79.40
4249;DHT22;8404;48.752;12.922;2022-09-17T15:55:33;12.30;79.60
4249;DHT22;8404;48.752;12.922;2022-09-17T15:58:17;12.30;79.70
4249;DHT22;8404;48.752;12.922;2022-09-17T16:00:46;12.20;80.60
4249;DHT22;8404;48.752;12.922;2022-09-17T16:04:04;12.20;81.00
4249;DHT22;8404;48.752;12.922;2022-09-17T16:06:35;12.20;80.30
4249;DHT22;8404;48.752;12.922;2022-09-17T16:09:35;12.10;81.10
4249;DHT22;8404;48.752;12.922;2022-09-17T16:12:04;12.10;84.50
4249;DHT22;8404;48.752;12.922;2022-09-17T16:14:34;11.30;90.40
4249;DHT22;8404;48.752;12.922;2022-09-17T16:17:21;10.70;92.40
4249;DHT22;8404;48.752;12.922;2022-09-17T16:19:50;10.40;94.30
4249;DHT22;8404;48.752;12.922;2022-09-17T16:22:18;10.20;95.10
4249;DHT22;8404;48.752;12.922;2022-09-17T16:24:46;10.20;95.50
4249;DHT22;8404;48.752;12.922;2022-09-17T16:27:18;10.30;92.10
4249;DHT22;8404;48.752;12.922;2022-09-17T16:29:50;10.00;91.80
4249;DHT22;8404;48.752;12.922;2022-09-17T16:32:19;9.60;93.60
4249;DHT22;8404;48.752;12.922;2022-09-17T16:34:47;9.40;95.10
4249;DHT22;8404;48.752;12.922;2022-09-17T16:37:15;9.00;99.70
4249;DHT22;8404;48.752;12.922;2022-09-17T16:39:43;8.80;99.90
4249;DHT22;8404;48.752;12.922;2022-09-17T16:42:11;8.70;99.90
4249;DHT22;8404;48.752;12.922;2022-09-17T16:44:39;8.70;99.90
4249;DHT22;8404;48.752;12.922;2022-09-17T16:47:08;8.70;99.90
4249;DHT22;8404;48.752;12.922;2022-09-17T16:49:36;8.80;99.70